Time;durP1;ratioP1;P1;durP2;ratioP2;P2;SDS_P1;SDS_P2;PMS_P1;PMS_P2;Temp;Humidity;BMP_temperature;BMP_pressure;BME280_temperature;BME280_humidity;BME280_pressure;Samples;Min_cycle;Max_cycle;Signal;HPM_P1;HPM_P2
2021/09/26 00:01:53;;;;;;;20.58;15.18;;;14.60;94.10;;;;;;5071025;28;20056;-73
2021/09/26 00:04:21;;;;;;;20.63;15.65;;;14.60;94.40;;;;;;5053880;28;20048;-74
2021/09/26 00:06:47;;;;;;;17.98;14.32;;;14.60;94.20;;;;;;5071832;28;20090;-69
2021/09/26 00:09:14;;;;;;;18.83;13.95;;;14.60;94.10;;;;;;5070751;28;20085;-72
2021/09/26 00:11:41;;;;;;;17.75;15.10;;;14.60;94.00;;;;;;5052797;28;20045;-73
2021/09/26 00:14:09;;;;;;;18.50;14.35;;;14.60;94.10;;;;;;5071267;28;20058;-72
2021/09/26 00:16:36;;;;;;;17.08;13.82;;;14.60;94.20;;;;;;5070023;28;20143;-73
2021/09/26 00:19:03;;;;;;;16.45;14.35;;;14.60;94.30;;;;;;5037058;28;20117;-73
2021/09/26 00:21:30;;;;;;;16.50;14.00;;;14.60;94.10;;;;;;5046530;28;20127;-73
2021/09/26 00:23:57;;;;;;;16.48;14.27;;;14.50;94.20;;;;;;5071808;28;20128;-72
2021/09/26 00:26:24;;;;;;;17.88;14.15;;;14.50;94.10;;;;;;5070475;28;20041;-73
2021/09/26 00:28:51;;;;;;;17.77;14.18;;;14.50;94.20;;;;;;5070517;28;20077;-73
2021/09/26 00:31:18;;;;;;;15.02;12.82;;;14.50;94.20;;;;;;5070193;28;20048;-73
2021/09/26 00:33:45;;;;;;;16.40;12.50;;;14.50;94.20;;;;;;5053170;28;20506;-73
2021/09/26 00:36:12;;;;;;;17.70;14.68;;;14.50;94.10;;;;;;5052756;28;20092;-74
2021/09/26 00:38:39;;;;;;;16.48;14.20;;;14.50;94.30;;;;;;5053974;28;20476;-72
2021/09/26 00:41:06;;;;;;;16.10;14.32;;;14.50;94.20;;;;;;5071557;28;20162;-74
2021/09/26 00:43:35;;;;;;;19.45;14.90;;;14.50;94.20;;;;;;5071244;28;20139;-74
2021/09/26 00:46:04;;;;;;;16.15;14.40;;;14.50;94.30;;;;;;5070610;28;20091;-74
2021/09/26 00:48:31;;;;;;;16.15;13.20;;;14.50;94.20;;;;;;5070652;28;20076;-74
2021/09/26 00:50:58;;;;;;;18.80;14.93;;;14.50;94.20;;;;;;5036575;28;20063;-74
2021/09/26 00:53:25;;;;;;;16.73;14.23;;;14.50;94.30;;;;;;5053349;28;20524;-74
2021/09/26 00:55:56;;;;;;;17.85;13.93;;;14.50;94.60;;;;;;5053096;28;20048;-74
2021/09/26 00:58:24;;;;;;;20.42;14.38;;;14.50;94.50;;;;;;5069763;28;20495;-73
2021/09/26 01:00:51;;;;;;;17.98;14.65;;;14.50;94.40;;;;;;5068589;28;20040;-75
2021/09/26 01:03:19;;;;;;;19.33;13.77;;;14.50;94.40;;;;;;5070037;28;20127;-73
2021/09/26 01:06:06;;;;;;;17.13;14.82;;;14.50;94.40;;;;;;5052393;28;20095;-74
2021/09/26 01:08:56;;;;;;;17.35;15.18;;;14.50;94.40;;;;;;5054647;28;20093;-74
2021/09/26 01:11:42;;;;;;;18.95;14.77;;;14.50;94.20;;;;;;5070921;28;20123;-75
2021/09/26 01:14:22;;;;;;;19.30;15.50;;;14.50;94.40;;;;;;5035078;28;20080;-74
2021/09/26 01:16:58;;;;;;;17.63;14.20;;;14.50;94.60;;;;;;5052066;28;20114;-74
2021/09/26 01:19:41;;;;;;;16.42;14.73;;;14.60;94.60;;;;;;5053099;28;20058;-76
2021/09/26 01:22:12;;;;;;;19.88;14.73;;;14.60;94.50;;;;;;5069510;28;20192;-73
2021/09/26 01:25:17;;;;;;;23.08;15.52;;;14.60;94.60;;;;;;5036698;28;20066;-75
2021/09/26 01:28:18;;;;;;;18.00;15.43;;;14.60;95.00;;;;;;5021242;28;20052;-73
2021/09/26 01:30:55;;;;;;;19.75;14.32;;;14.60;94.80;;;;;;5063327;28;20068;-73
2021/09/26 01:33:34;;;;;;;21.48;16.40;;;14.60;94.60;;;;;;5035324;28;20426;-73
2021/09/26 01:36:03;;;;;;;22.13;15.80;;;14.60;94.60;;;;;;5052728;28;20050;-72
2021/09/26 01:38:40;;;;;;;21.52;16.35;;;14.60;94.60;;;;;;5052093;28;20483;-73
2021/09/26 01:41:16;;;;;;;20.38;16.95;;;14.60;94.80;;;;;;5035968;28;20059;-73
2021/09/26 01:43:43;;;;;;;19.88;16.52;;;14.60;94.70;;;;;;5052034;28;20048;-74
2021/09/26 01:46:12;;;;;;;23.50;17.17;;;14.60;94.80;;;;;;5070377;28;20934;-72
2021/09/26 01:48:45;;;;;;;20.27;17.35;;;14.60;94.80;;;;;;5032357;28;20079;-74
2021/09/26 01:51:12;;;;;;;22.00;16.70;;;14.60;94.70;;;;;;5032320;28;20373;-73
2021/09/26 01:53:43;;;;;;;17.27;13.65;;;14.60;94.80;;;;;;5051979;28;20060;-74
2021/09/26 01:56:14;;;;;;;19.77;16.15;;;14.60;94.60;;;;;;5069787;28;20076;-74
2021/09/26 01:58:44;;;;;;;20.33;17.25;;;14.60;94.90;;;;;;5050959;28;20056;-73
2021/09/26 02:01:13;;;;;;;19.83;16.95;;;14.60;94.90;;;;;;5051163;28;20128;-72
2021/09/26 02:03:40;;;;;;;19.35;16.55;;;14.60;94.80;;;;;;5051323;28;20484;-73
2021/09/26 02:06:07;;;;;;;21.77;17.10;;;14.60;94.80;;;;;;5049918;28;20044;-73
2021/09/26 02:08:34;;;;;;;335.70;274.15;;;14.70;94.90;;;;;;5051559;28;20043;-68
2021/09/26 02:11:01;;;;;;;42.75;35.15;;;14.70;95.20;;;;;;5052402;28;20059;-73
2021/09/26 02:13:29;;;;;;;34.17;27.45;;;14.70;94.80;;;;;;5068843;28;20037;-73
2021/09/26 02:15:56;;;;;;;24.30;20.27;;;14.70;94.90;;;;;;5031756;28;20385;-73
2021/09/26 02:18:23;;;;;;;24.25;20.00;;;14.70;94.60;;;;;;5042047;28;20043;-72
2021/09/26 02:20:50;;;;;;;28.02;19.65;;;14.70;94.60;;;;;;5050812;28;20096;-72
2021/09/26 02:23:16;;;;;;;22.00;17.85;;;14.70;94.60;;;;;;5051179;28;20049;-72
2021/09/26 02:25:43;;;;;;;23.38;18.00;;;14.70;94.60;;;;;;5070254;28;20079;-73
2021/09/26 02:28:11;;;;;;;22.75;18.60;;;14.70;94.60;;;;;;5051041;28;20123;-70
2021/09/26 02:30:39;;;;;;;22.35;18.77;;;14.70;94.60;;;;;;5051799;28;20048;-74
2021/09/26 02:33:07;;;;;;;26.05;20.45;;;14.80;94.70;;;;;;5068850;28;20125;-73
2021/09/26 02:35:34;;;;;;;24.90;20.25;;;14.70;94.70;;;;;;5050930;28;20077;-73
2021/09/26 02:38:01;;;;;;;25.98;21.58;;;14.80;94.90;;;;;;5050608;28;20092;-73
2021/09/26 02:40:27;;;;;;;22.95;18.75;;;14.70;95.10;;;;;;5068789;28;20515;-72
2021/09/26 02:43:27;;;;;;;21.15;17.88;;;14.70;94.80;;;;;;5068979;28;20063;-74
2021/09/26 02:46:04;;;;;;;22.27;17.00;;;14.70;94.90;;;;;;5051129;28;20056;-73
2021/09/26 02:48:31;;;;;;;23.17;18.02;;;14.70;94.90;;;;;;5051791;28;20481;-73
2021/09/26 02:50:58;;;;;;;27.83;18.92;;;14.70;95.00;;;;;;5034863;28;20067;-72
2021/09/26 02:53:26;;;;;;;22.88;19.15;;;14.70;95.00;;;;;;5050932;28;20041;-74
2021/09/26 02:55:54;;;;;;;23.42;18.75;;;14.70;95.00;;;;;;5069022;28;20399;-73
2021/09/26 02:58:22;;;;;;;23.55;18.88;;;14.70;95.10;;;;;;5050409;28;20391;-74
2021/09/26 03:00:49;;;;;;;22.00;19.27;;;14.80;95.10;;;;;;5050415;28;20055;-74
2021/09/26 03:03:23;;;;;;;25.05;18.92;;;14.80;95.20;;;;;;5050782;28;20472;-74
2021/09/26 03:05:50;;;;;;;22.65;18.20;;;14.80;95.00;;;;;;5050840;28;20075;-74
2021/09/26 03:08:17;;;;;;;22.45;18.92;;;14.80;94.90;;;;;;5050930;28;20048;-74
2021/09/26 03:10:45;;;;;;;27.00;20.58;;;14.80;94.80;;;;;;5033762;28;20124;-74
2021/09/26 03:13:12;;;;;;;23.50;19.50;;;14.80;94.90;;;;;;5068866;28;20044;-74
2021/09/26 03:15:39;;;;;;;23.55;18.75;;;14.80;94.90;;;;;;5050622;28;20055;-73
2021/09/26 03:18:06;;;;;;;22.67;19.85;;;14.90;95.00;;;;;;5052115;28;20040;-74
2021/09/26 03:20:33;;;;;;;21.85;18.92;;;14.80;94.70;;;;;;5072188;28;20123;-74
2021/09/26 03:23:00;;;;;;;19.02;16.25;;;14.90;94.80;;;;;;5071897;28;20059;-74
2021/09/26 03:25:28;;;;;;;20.48;18.05;;;14.90;94.60;;;;;;5054977;28;20060;-74
2021/09/26 03:27:55;;;;;;;21.17;18.55;;;14.90;94.80;;;;;;5072516;28;20045;-73
2021/09/26 03:30:23;;;;;;;21.77;17.73;;;14.90;94.90;;;;;;5072745;28;20084;-73
2021/09/26 03:32:50;;;;;;;22.77;18.38;;;14.90;94.80;;;;;;5054252;28;20492;-73
2021/09/26 03:35:17;;;;;;;23.98;18.75;;;14.90;94.90;;;;;;5054721;28;20048;-74
2021/09/26 03:37:44;;;;;;;26.52;19.42;;;14.80;94.90;;;;;;5054138;28;20072;-74
2021/09/26 03:40:11;;;;;;;22.73;18.42;;;14.90;94.90;;;;;;5049816;28;20094;-74
2021/09/26 03:42:38;;;;;;;22.20;18.35;;;14.90;94.70;;;;;;5071485;28;20047;-73
2021/09/26 03:45:05;;;;;;;23.65;18.55;;;14.90;94.90;;;;;;5054391;28;20119;-74
2021/09/26 03:47:33;;;;;;;22.38;18.00;;;14.90;95.30;;;;;;5071891;28;20135;-74
2021/09/26 03:50:00;;;;;;;23.98;18.77;;;14.90;94.80;;;;;;5037552;28;20127;-74
2021/09/26 03:52:27;;;;;;;26.50;19.55;;;14.90;95.10;;;;;;5072665;28;20128;-74
2021/09/26 03:54:54;;;;;;;22.75;18.70;;;14.90;95.20;;;;;;5072606;28;20043;-73
2021/09/26 03:57:21;;;;;;;24.13;18.73;;;14.90;95.50;;;;;;5071677;28;20168;-72
2021/09/26 03:59:48;;;;;;;23.40;19.75;;;14.90;95.30;;;;;;5071058;28;20075;-73
2021/09/26 04:02:15;;;;;;;25.20;18.42;;;14.90;95.30;;;;;;5054236;28;20433;-74
2021/09/26 04:04:42;;;;;;;23.67;18.92;;;14.90;95.30;;;;;;5053890;28;20040;-73
2021/09/26 04:07:09;;;;;;;24.00;18.98;;;14.90;95.30;;;;;;5054238;28;20128;-74
2021/09/26 04:09:36;;;;;;;25.33;19.30;;;14.90;95.40;;;;;;5071568;28;20047;-72
2021/09/26 04:12:03;;;;;;;27.33;20.65;;;14.90;95.40;;;;;;5053294;28;20052;-74
2021/09/26 04:14:29;;;;;;;22.88;19.77;;;15.00;95.30;;;;;;5071079;28;20783;-74
2021/09/26 04:16:56;;;;;;;25.65;19.38;;;15.00;95.10;;;;;;5071497;28;20057;-74
2021/09/26 04:19:23;;;;;;;25.88;18.77;;;15.00;95.00;;;;;;5071724;28;20055;-74
2021/09/26 04:21:51;;;;;;;23.73;19.40;;;15.00;95.10;;;;;;5071708;28;20089;-74
2021/09/26 04:24:18;;;;;;;24.92;19.88;;;15.00;95.10;;;;;;5070966;28;20099;-72
2021/09/26 04:26:45;;;;;;;27.73;20.98;;;15.00;95.10;;;;;;5061901;28;20058;-74
2021/09/26 04:29:12;;;;;;;27.90;19.65;;;15.00;95.30;;;;;;5035414;28;20577;-73
2021/09/26 04:31:39;;;;;;;26.25;20.77;;;14.90;95.20;;;;;;5053951;28;20397;-74
2021/09/26 04:34:09;;;;;;;30.23;21.35;;;14.90;94.90;;;;;;5071114;28;20083;-73
2021/09/26 04:36:36;;;;;;;23.05;19.63;;;14.90;94.70;;;;;;5071685;28;20045;-74
2021/09/26 04:39:04;;;;;;;23.23;20.73;;;14.90;94.80;;;;;;5053284;28;20067;-74
2021/09/26 04:41:31;;;;;;;24.50;19.30;;;14.90;94.90;;;;;;5053227;28;20048;-74
2021/09/26 04:43:58;;;;;;;26.27;21.77;;;14.90;94.80;;;;;;5070433;28;20052;-74
2021/09/26 04:46:26;;;;;;;29.88;21.02;;;14.90;94.70;;;;;;5070571;28;20110;-73
2021/09/26 04:48:53;;;;;;;27.00;21.90;;;14.90;94.80;;;;;;5035283;28;20044;-74
2021/09/26 04:51:20;;;;;;;25.83;21.48;;;14.80;95.10;;;;;;5034571;28;20040;-73
2021/09/26 04:53:47;;;;;;;26.85;21.00;;;14.80;94.80;;;;;;5070669;28;20111;-74
2021/09/26 04:56:14;;;;;;;25.08;20.67;;;14.80;94.90;;;;;;5052564;28;20072;-74
2021/09/26 04:58:41;;;;;;;29.95;22.48;;;14.80;94.90;;;;;;5051911;28;20116;-73
2021/09/26 05:01:09;;;;;;;24.95;21.27;;;14.70;94.80;;;;;;5070818;28;20103;-73
2021/09/26 05:03:36;;;;;;;28.52;22.52;;;14.70;95.20;;;;;;5053187;28;20044;-74
2021/09/26 05:06:03;;;;;;;34.05;23.63;;;14.60;95.00;;;;;;5070553;28;20417;-74
2021/09/26 05:08:30;;;;;;;31.55;23.35;;;14.60;95.10;;;;;;5052545;28;20059;-74
2021/09/26 05:10:56;;;;;;;27.27;22.20;;;14.60;94.90;;;;;;5052916;28;20048;-74
2021/09/26 05:13:23;;;;;;;26.98;21.63;;;14.60;94.80;;;;;;5069778;28;20173;-71
2021/09/26 05:15:50;;;;;;;27.58;21.55;;;14.50;95.10;;;;;;5052830;28;20132;-73
2021/09/26 05:18:17;;;;;;;32.30;23.42;;;14.50;95.00;;;;;;5069872;28;20135;-74
2021/09/26 05:20:45;;;;;;;31.02;22.25;;;14.50;95.30;;;;;;5070202;28;20058;-75
2021/09/26 05:23:12;;;;;;;30.02;23.00;;;14.50;94.90;;;;;;5077048;28;20044;-72
2021/09/26 05:25:38;;;;;;;31.00;23.58;;;14.40;95.00;;;;;;5073699;28;20493;-72
2021/09/26 05:28:05;;;;;;;32.08;24.45;;;14.40;95.40;;;;;;5053381;28;20045;-73
2021/09/26 05:30:33;;;;;;;31.45;24.75;;;14.40;95.60;;;;;;5079550;28;20054;-72
2021/09/26 05:33:01;;;;;;;31.90;22.42;;;14.40;95.60;;;;;;5050602;28;20545;-75
2021/09/26 05:35:29;;;;;;;27.83;21.42;;;14.30;95.00;;;;;;5057004;28;20044;-74
2021/09/26 05:37:57;;;;;;;29.83;21.85;;;14.30;95.30;;;;;;5055838;28;20629;-72
2021/09/26 05:40:24;;;;;;;30.35;25.10;;;14.30;95.10;;;;;;5072976;28;20120;-73
2021/09/26 05:42:52;;;;;;;30.45;24.23;;;14.20;95.50;;;;;;5074971;28;20075;-73
2021/09/26 05:45:19;;;;;;;29.10;22.40;;;14.20;95.00;;;;;;5057370;28;20072;-72
2021/09/26 05:47:46;;;;;;;25.92;21.10;;;14.10;95.10;;;;;;5055327;28;20465;-73
2021/09/26 05:50:13;;;;;;;27.45;21.08;;;14.10;95.80;;;;;;5036586;28;20048;-73
2021/09/26 05:52:40;;;;;;;26.92;21.10;;;14.00;95.50;;;;;;5051931;28;20087;-72
2021/09/26 05:55:07;;;;;;;27.90;22.20;;;14.00;95.60;;;;;;5038701;28;20075;-73
2021/09/26 05:57:35;;;;;;;29.17;20.73;;;14.00;96.00;;;;;;5052597;28;20046;-73
2021/09/26 06:00:03;;;;;;;30.80;23.45;;;14.00;96.10;;;;;;5034841;28;20048;-73
2021/09/26 06:02:30;;;;;;;29.77;23.50;;;14.10;96.10;;;;;;5077127;28;20044;-71
2021/09/26 06:04:57;;;;;;;29.83;22.98;;;14.10;96.50;;;;;;5069095;28;20114;-73
2021/09/26 06:07:24;;;;;;;27.30;21.92;;;14.10;96.30;;;;;;5032301;28;20473;-73
2021/09/26 06:09:51;;;;;;;31.55;23.08;;;14.20;96.30;;;;;;5070195;28;20036;-71
2021/09/26 06:12:18;;;;;;;28.92;23.42;;;14.20;95.90;;;;;;5051329;28;20116;-73
2021/09/26 06:14:45;;;;;;;33.20;22.95;;;14.30;96.20;;;;;;5078066;28;20122;-74
2021/09/26 06:17:13;;;;;;;30.33;23.42;;;14.30;96.20;;;;;;5035047;28;20415;-73
2021/09/26 06:19:39;;;;;;;32.63;23.35;;;14.40;96.20;;;;;;5070368;28;20047;-73
2021/09/26 06:22:06;;;;;;;32.50;24.98;;;14.50;96.00;;;;;;5069013;28;20041;-73
2021/09/26 06:24:34;;;;;;;32.70;23.42;;;14.50;96.30;;;;;;5073812;28;20052;-74
2021/09/26 06:27:01;;;;;;;30.85;24.67;;;14.60;96.40;;;;;;5051462;28;20048;-72
2021/09/26 06:29:28;;;;;;;43.20;29.33;;;14.70;96.70;;;;;;5054959;28;20058;-73
2021/09/26 06:31:55;;;;;;;38.72;28.88;;;14.80;97.40;;;;;;5036266;28;20048;-73
2021/09/26 06:34:22;;;;;;;46.63;31.75;;;14.90;97.50;;;;;;5069019;28;20132;-73
2021/09/26 06:36:49;;;;;;;43.08;30.30;;;15.00;98.00;;;;;;5070325;28;20109;-71
2021/09/26 06:39:16;;;;;;;42.20;30.40;;;15.00;97.50;;;;;;5015095;28;20068;-71
2021/09/26 06:41:43;;;;;;;47.22;34.17;;;15.10;97.80;;;;;;5064700;28;20052;-74
2021/09/26 06:44:10;;;;;;;47.13;32.03;;;15.20;98.80;;;;;;5065558;28;20444;-74
2021/09/26 06:46:38;;;;;;;47.80;32.17;;;15.30;98.20;;;;;;5069209;28;20453;-73
2021/09/26 06:49:05;;;;;;;56.50;32.78;;;15.40;98.40;;;;;;5061393;28;20044;-73
2021/09/26 06:51:32;;;;;;;58.17;35.53;;;15.50;98.80;;;;;;5050679;28;20061;-74
2021/09/26 06:54:00;;;;;;;64.00;38.83;;;15.60;99.70;;;;;;5063809;28;20376;-73
2021/09/26 06:56:26;;;;;;;58.70;34.83;;;15.70;99.70;;;;;;5058954;28;20083;-73
2021/09/26 06:58:54;;;;;;;62.20;36.65;;;15.80;99.60;;;;;;5055141;28;20106;-74
2021/09/26 07:01:20;;;;;;;59.33;36.05;;;15.90;99.70;;;;;;5055901;28;20460;-74
2021/09/26 07:03:48;;;;;;;59.30;34.85;;;16.10;99.50;;;;;;5055721;28;20072;-73
2021/09/26 07:06:15;;;;;;;60.03;36.10;;;16.20;99.50;;;;;;5076497;28;20165;-73
2021/09/26 07:08:42;;;;;;;59.70;36.13;;;16.30;99.10;;;;;;5086194;28;20096;-74
2021/09/26 07:11:09;;;;;;;55.70;37.15;;;16.40;98.70;;;;;;5059438;28;20122;-73
2021/09/26 07:13:36;;;;;;;50.17;35.08;;;16.50;98.50;;;;;;5074270;28;20036;-74
2021/09/26 07:16:03;;;;;;;54.70;36.88;;;16.60;98.50;;;;;;5077007;28;20068;-74
2021/09/26 07:18:30;;;;;;;51.92;31.98;;;16.70;98.10;;;;;;5073090;28;20052;-73
2021/09/26 07:20:57;;;;;;;52.70;35.47;;;16.90;98.00;;;;;;5056895;28;20093;-73
2021/09/26 07:23:25;;;;;;;53.53;33.65;;;16.90;97.60;;;;;;5055297;28;20127;-75
2021/09/26 07:25:52;;;;;;;50.20;33.85;;;17.00;97.10;;;;;;5062294;28;20111;-73
2021/09/26 07:28:19;;;;;;;53.70;35.17;;;17.10;97.00;;;;;;5060771;28;20045;-75
2021/09/26 07:30:46;;;;;;;53.33;34.85;;;17.10;96.90;;;;;;5072955;28;20044;-74
2021/09/26 07:33:19;;;;;;;51.70;34.63;;;17.20;96.90;;;;;;5073542;28;20086;-73
2021/09/26 07:35:48;;;;;;;51.85;34.72;;;17.20;96.90;;;;;;5048808;28;20070;-74
2021/09/26 07:38:15;;;;;;;50.47;35.05;;;17.30;96.60;;;;;;5055034;28;20085;-72
2021/09/26 07:40:42;;;;;;;47.63;34.05;;;17.30;96.60;;;;;;5055589;28;20148;-73
2021/09/26 07:43:09;;;;;;;50.95;35.70;;;17.30;96.40;;;;;;5072972;28;20087;-74
2021/09/26 07:45:53;;;;;;;53.33;34.03;;;17.40;96.50;;;;;;5057716;28;20040;-74
2021/09/26 07:48:21;;;;;;;47.22;34.15;;;17.40;96.50;;;;;;5038583;28;20059;-74
2021/09/26 07:50:49;;;;;;;46.85;33.47;;;17.50;96.40;;;;;;5054652;28;20135;-74
2021/09/26 07:53:17;;;;;;;41.73;30.87;;;17.50;96.20;;;;;;5072019;28;20167;-74
2021/09/26 07:55:44;;;;;;;46.42;33.90;;;17.60;96.20;;;;;;5073455;28;20048;-74
2021/09/26 07:58:11;;;;;;;47.95;34.10;;;17.70;96.00;;;;;;5077464;28;20144;-73
2021/09/26 08:00:38;;;;;;;46.85;33.33;;;17.70;95.80;;;;;;5054179;28;20036;-73
2021/09/26 08:03:09;;;;;;;49.42;33.65;;;17.80;95.80;;;;;;5071462;28;20523;-74
2021/09/26 08:05:36;;;;;;;47.05;32.85;;;17.80;95.80;;;;;;5077736;28;20040;-72
2021/09/26 08:08:03;;;;;;;41.03;32.08;;;17.90;95.50;;;;;;5079140;28;20076;-73
2021/09/26 08:10:30;;;;;;;41.80;32.03;;;18.00;95.30;;;;;;5054086;28;20072;-73
2021/09/26 08:12:57;;;;;;;40.83;31.40;;;18.10;95.10;;;;;;5053260;28;20059;-68
2021/09/26 08:15:24;;;;;;;54.03;41.75;;;18.10;94.80;;;;;;5053820;28;20131;-64
2021/09/26 08:17:51;;;;;;;37.78;30.30;;;18.20;94.80;;;;;;5071637;28;20048;-64
2021/09/26 08:20:18;;;;;;;39.53;31.90;;;18.30;94.70;;;;;;5050987;28;20040;-75
2021/09/26 08:22:45;;;;;;;39.38;31.17;;;18.30;94.40;;;;;;5052939;28;20057;-73
2021/09/26 08:25:13;;;;;;;38.03;30.25;;;18.40;94.30;;;;;;5071548;28;20046;-73
2021/09/26 08:27:40;;;;;;;36.25;27.85;;;18.40;94.20;;;;;;5059359;28;20123;-72
2021/09/26 08:30:09;;;;;;;38.28;26.48;;;18.40;94.50;;;;;;5054321;28;20498;-74
2021/09/26 08:32:36;;;;;;;39.63;27.27;;;18.40;94.30;;;;;;5048149;28;20075;-76
2021/09/26 08:35:04;;;;;;;57.42;49.33;;;18.50;94.00;;;;;;5091451;28;20411;-75
2021/09/26 08:37:31;;;;;;;33.50;28.45;;;18.50;93.90;;;;;;5069647;28;20053;-72
2021/09/26 08:39:58;;;;;;;30.90;24.48;;;18.50;93.70;;;;;;5085186;28;20151;-76
2021/09/26 08:42:25;;;;;;;38.35;30.20;;;18.50;93.80;;;;;;5057738;28;20059;-70
2021/09/26 08:44:52;;;;;;;35.58;29.48;;;18.50;94.00;;;;;;5067273;28;20054;-68
2021/09/26 08:47:19;;;;;;;28.05;25.02;;;18.50;93.90;;;;;;5058870;28;20049;-71
2021/09/26 08:49:46;;;;;;;27.65;23.08;;;18.50;94.10;;;;;;5056468;28;20143;-69
2021/09/26 08:52:13;;;;;;;35.80;24.33;;;18.60;94.00;;;;;;5043605;28;20361;-69
2021/09/26 08:54:42;;;;;;;28.08;25.13;;;18.60;93.50;;;;;;5075737;28;20089;-70
2021/09/26 08:57:09;;;;;;;28.93;23.10;;;18.60;93.70;;;;;;5084966;28;20156;-70
2021/09/26 08:59:36;;;;;;;28.35;22.73;;;18.60;93.30;;;;;;5077362;28;20044;-66
2021/09/26 09:02:03;;;;;;;28.30;24.42;;;18.60;93.60;;;;;;5060278;28;20166;-69
2021/09/26 09:04:38;;;;;;;24.20;20.77;;;18.60;93.60;;;;;;5064311;28;20050;-70
2021/09/26 09:07:06;;;;;;;27.08;21.25;;;18.60;93.50;;;;;;5061192;28;20049;-70
2021/09/26 09:09:53;;;;;;;39.28;31.42;;;18.60;93.50;;;;;;5058506;28;20115;-68
2021/09/26 09:12:33;;;;;;;33.50;24.73;;;18.60;93.40;;;;;;5036814;28;20150;-69
2021/09/26 09:15:05;;;;;;;39.05;27.02;;;18.70;93.30;;;;;;5058842;28;20106;-70
2021/09/26 09:17:32;;;;;;;26.98;21.75;;;18.80;93.30;;;;;;5060262;28;20048;-70
2021/09/26 09:20:27;;;;;;;24.05;19.33;;;18.80;93.20;;;;;;5063079;28;20052;-70
2021/09/26 09:23:14;;;;;;;24.40;20.40;;;18.80;92.90;;;;;;5070149;28;20088;-67
2021/09/26 09:25:43;;;;;;;24.80;20.23;;;18.90;92.90;;;;;;5052237;28;20063;-69
2021/09/26 09:28:14;;;;;;;49.20;43.88;;;19.00;92.70;;;;;;5085940;28;20052;-69
2021/09/26 09:30:48;;;;;;;31.83;24.75;;;19.10;92.90;;;;;;5084302;28;20136;-69
2021/09/26 09:33:19;;;;;;;26.75;20.45;;;19.10;92.60;;;;;;5052456;28;20044;-73
2021/09/26 09:35:53;;;;;;;23.98;19.52;;;19.20;92.70;;;;;;5063768;28;20123;-70
2021/09/26 09:38:29;;;;;;;24.67;20.15;;;19.30;92.60;;;;;;5069389;28;20127;-69
2021/09/26 09:40:56;;;;;;;35.97;30.88;;;19.40;92.30;;;;;;5071672;28;20037;-68
2021/09/26 09:43:23;;;;;;;68.93;57.25;;;19.50;92.20;;;;;;5069174;28;20486;-68
2021/09/26 09:46:10;;;;;;;68.47;61.28;;;19.60;92.10;;;;;;5071115;28;20056;-68
2021/09/26 09:48:37;;;;;;;25.80;20.35;;;19.80;91.50;;;;;;5089348;28;20048;-71
2021/09/26 09:51:05;;;;;;;22.80;17.20;;;19.90;91.80;;;;;;5090199;28;20397;-76
2021/09/26 09:53:38;;;;;;;19.63;17.48;;;20.00;91.50;;;;;;5072074;28;20167;-74
2021/09/26 09:56:08;;;;;;;17.08;15.10;;;20.20;91.00;;;;;;5057821;28;20055;-75
2021/09/26 09:58:42;;;;;;;18.15;15.52;;;20.30;91.00;;;;;;5064886;28;20051;-74
2021/09/26 10:01:17;;;;;;;18.58;14.57;;;20.50;90.40;;;;;;5072353;28;20129;-75
2021/09/26 10:03:52;;;;;;;19.13;14.88;;;20.70;90.30;;;;;;5067758;28;20044;-75
2021/09/26 10:06:37;;;;;;;17.90;14.70;;;20.80;90.10;;;;;;5055801;28;20124;-75
2021/09/26 10:09:25;;;;;;;18.48;13.48;;;20.90;89.30;;;;;;5042189;28;20483;-75
2021/09/26 10:11:55;;;;;;;16.67;13.15;;;20.90;88.10;;;;;;5054590;28;20572;-74
2021/09/26 10:14:27;;;;;;;15.80;11.95;;;20.70;87.70;;;;;;5052341;28;20382;-73
2021/09/26 10:16:54;;;;;;;17.65;15.07;;;20.60;88.80;;;;;;5056612;28;20530;-75
2021/09/26 10:19:22;;;;;;;23.75;20.10;;;20.50;89.30;;;;;;5054577;28;20053;-74
2021/09/26 10:21:50;;;;;;;16.90;11.38;;;20.40;89.50;;;;;;5082680;28;20056;-74
2021/09/26 10:24:22;;;;;;;15.55;11.32;;;20.40;89.00;;;;;;5053806;28;20352;-74
2021/09/26 10:26:49;;;;;;;13.00;10.63;;;20.30;89.80;;;;;;5036430;28;20056;-74
2021/09/26 10:29:19;;;;;;;12.57;10.10;;;20.30;89.40;;;;;;5070882;28;20135;-74
2021/09/26 10:31:47;;;;;;;15.38;10.90;;;20.30;89.50;;;;;;5032589;28;20103;-74
2021/09/26 10:34:14;;;;;;;15.00;10.95;;;20.30;89.30;;;;;;5031436;28;20049;-74
2021/09/26 10:36:42;;;;;;;15.95;10.75;;;20.30;89.40;;;;;;5041112;28;20047;-73
2021/09/26 10:39:08;;;;;;;15.10;11.30;;;20.40;88.90;;;;;;5054970;28;20080;-73
2021/09/26 10:41:36;;;;;;;12.77;10.50;;;20.30;89.30;;;;;;5037061;28;20048;-73
2021/09/26 10:44:23;;;;;;;14.32;10.40;;;20.40;89.50;;;;;;5058414;28;20072;-74
2021/09/26 10:47:16;;;;;;;14.48;10.45;;;20.40;89.80;;;;;;5076660;28;20060;-73
2021/09/26 10:49:45;;;;;;;10.48;9.35;;;20.50;89.60;;;;;;5049252;28;20056;-73
2021/09/26 10:52:33;;;;;;;11.98;10.05;;;20.50;89.30;;;;;;5081529;28;20139;-73
2021/09/26 10:55:15;;;;;;;11.50;9.13;;;20.50;88.90;;;;;;5079690;28;20048;-73
2021/09/26 10:57:49;;;;;;;12.57;8.75;;;20.50;88.40;;;;;;5089705;28;20119;-73
2021/09/26 11:00:40;;;;;;;10.95;9.05;;;20.50;88.20;;;;;;5060409;28;20508;-73
2021/09/26 11:03:11;;;;;;;11.88;7.97;;;20.60;88.60;;;;;;5066002;28;20048;-73
2021/09/26 11:05:44;;;;;;;11.52;8.00;;;20.60;87.70;;;;;;5074641;28;20067;-72
2021/09/26 11:08:24;;;;;;;10.05;7.45;;;20.60;86.90;;;;;;5071167;28;20203;-74
2021/09/26 11:10:56;;;;;;;34.83;23.52;;;20.70;88.50;;;;;;5056370;28;20500;-69
2021/09/26 11:13:33;;;;;;;52.78;44.42;;;20.90;87.00;;;;;;5035979;28;20105;-69
2021/09/26 11:16:14;;;;;;;9.02;8.13;;;21.00;86.20;;;;;;5073708;28;20048;-69
2021/09/26 11:19:25;;;;;;;8.55;7.05;;;21.00;85.60;;;;;;5069052;28;20078;-69
2021/09/26 11:21:54;;;;;;;11.07;8.10;;;21.20;86.20;;;;;;5052158;28;20044;-69
2021/09/26 11:24:35;;;;;;;10.32;7.70;;;21.20;84.80;;;;;;5034082;28;20075;-73
2021/09/26 11:27:19;;;;;;;11.18;10.00;;;21.20;84.40;;;;;;5055357;28;20044;-69
2021/09/26 11:29:48;;;;;;;14.13;10.80;;;21.10;84.60;;;;;;5034672;28;20172;-69
2021/09/26 11:32:25;;;;;;;11.30;7.50;;;21.00;85.60;;;;;;5071716;28;20044;-71
2021/09/26 11:34:55;;;;;;;16.13;12.90;;;21.00;85.70;;;;;;5070434;28;20078;-73
2021/09/26 11:37:34;;;;;;;;;;;21.00;84.80;;;;;;5075246;28;20062;-68
2021/09/26 11:40:02;;;;;;;;;;;21.00;86.30;;;;;;5077726;28;19920;-68
2021/09/26 11:42:36;;;;;;;14.77;8.25;;;21.10;85.70;;;;;;5055267;28;20593;-68
2021/09/26 11:45:05;;;;;;;9.70;7.97;;;21.10;85.40;;;;;;5074543;28;20054;-68
2021/09/26 11:47:32;;;;;;;10.50;7.30;;;21.10;85.20;;;;;;5092752;28;20515;-69
2021/09/26 11:50:07;;;;;;;8.23;7.43;;;21.10;84.90;;;;;;5074529;28;20051;-69
2021/09/26 11:52:40;;;;;;;16.38;13.98;;;21.10;84.50;;;;;;5063433;28;20084;-70
2021/09/26 11:55:19;;;;;;;39.58;31.67;;;21.00;84.90;;;;;;5040677;28;20126;-69
2021/09/26 11:57:56;;;;;;;21.58;19.30;;;21.00;85.90;;;;;;5038297;28;20469;-69
2021/09/26 12:00:34;;;;;;;8.90;7.93;;;21.00;84.00;;;;;;5054241;28;20106;-69
2021/09/26 12:03:21;;;;;;;11.15;7.53;;;21.20;84.50;;;;;;5038140;28;20048;-68
2021/09/26 12:05:48;;;;;;;10.25;7.47;;;21.20;84.00;;;;;;5055117;28;20509;-66
2021/09/26 12:08:15;;;;;;;10.35;7.43;;;21.30;83.70;;;;;;5054780;28;20087;-67
2021/09/26 12:10:44;;;;;;;11.93;7.68;;;21.30;83.50;;;;;;5083703;28;20455;-68
2021/09/26 12:13:19;;;;;;;8.20;7.28;;;21.30;82.80;;;;;;5068892;28;20146;-70
2021/09/26 12:15:47;;;;;;;8.00;7.20;;;21.10;83.10;;;;;;5056701;28;20527;-70
2021/09/26 12:18:24;;;;;;;8.77;7.50;;;21.10;83.90;;;;;;5043074;28;20097;-69
2021/09/26 12:21:03;;;;;;;10.65;7.70;;;21.00;83.50;;;;;;5071988;28;20052;-71
2021/09/26 12:23:52;;;;;;;10.60;7.72;;;21.00;84.40;;;;;;5057451;28;20051;-68
2021/09/26 12:26:26;;;;;;;106.47;90.68;;;21.10;84.60;;;;;;5066390;28;20345;-63
2021/09/26 12:29:18;;;;;;;12.68;11.35;;;21.00;84.50;;;;;;5092164;28;20052;-70
2021/09/26 12:31:46;;;;;;;13.52;9.70;;;21.00;84.50;;;;;;5075639;28;20411;-71
2021/09/26 12:34:35;;;;;;;11.67;9.33;;;20.90;84.10;;;;;;5073699;28;20189;-70
2021/09/26 12:37:03;;;;;;;10.27;9.23;;;20.80;84.50;;;;;;5074488;28;20080;-70
2021/09/26 12:39:32;;;;;;;12.10;8.35;;;20.70;84.50;;;;;;5091410;28;20487;-70
2021/09/26 12:41:59;;;;;;;11.82;8.63;;;20.60;84.90;;;;;;5060870;28;20048;-70
2021/09/26 12:44:30;;;;;;;13.55;9.25;;;20.60;85.80;;;;;;5068978;28;20040;-70